Aviation Digital Data Service (ADDS)

Output produced by METARs form (0556 UTC 29 May 2017)
found at http://www.aviationweather.gov/adds/metars/
 
TAF TXKF 290535Z 2906/3006 VRB03KT 9999 FEW015 BKN300 
     BECMG 2908/2912 22010KT 
     BECMG 3002/3006 24015KT SCT010 BKN015 
     PROB40 
     TEMPO 3002/3006 BKN010